createdAt,value
2024-01-24T00:02:01.403Z,4.36
2024-01-24T00:04:27.665Z,4.33
2024-01-24T00:06:53.875Z,4.84
2024-01-24T00:09:20.075Z,5.08
2024-01-24T00:11:46.286Z,4.96
2024-01-24T00:14:12.528Z,5.07
2024-01-24T00:16:38.688Z,5.12
2024-01-24T00:19:04.966Z,5.17
2024-01-24T00:21:31.222Z,4.69
2024-01-24T00:23:57.399Z,3.07
2024-01-24T00:26:23.567Z,3.24
2024-01-24T00:28:49.711Z,4.22
2024-01-24T00:31:15.902Z,4.33
2024-01-24T00:33:42.110Z,4.51
2024-01-24T00:36:08.389Z,4.88
2024-01-24T00:38:34.570Z,4.69
2024-01-24T00:41:00.733Z,4.52
2024-01-24T00:43:26.893Z,4.57
2024-01-24T00:45:53.059Z,4.76
2024-01-24T00:48:19.283Z,4.91
2024-01-24T00:50:45.541Z,4.96
2024-01-24T00:53:11.703Z,5.06
2024-01-24T00:55:37.846Z,4.85
2024-01-24T00:58:04.028Z,4.83
2024-01-24T01:00:30.258Z,4.97
2024-01-24T01:02:56.498Z,4.95
2024-01-24T01:05:22.725Z,4.75
2024-01-24T01:07:48.892Z,4.62
2024-01-24T01:10:15.059Z,4.51
2024-01-24T01:12:41.231Z,4.60
2024-01-24T01:15:07.471Z,4.53
2024-01-24T01:17:33.648Z,4.51
2024-01-24T01:19:59.815Z,4.61
2024-01-24T01:22:26.088Z,4.60
2024-01-24T01:24:52.320Z,4.65
2024-01-24T01:27:18.549Z,4.79
2024-01-24T01:29:45.789Z,4.19
2024-01-24T01:32:11.952Z,4.36
2024-01-24T01:34:38.345Z,4.33
2024-01-24T01:37:04.688Z,4.64
2024-01-24T01:39:30.976Z,4.71
2024-01-24T01:41:57.177Z,5.10
2024-01-24T01:44:23.340Z,4.65
2024-01-24T01:46:49.517Z,4.71
2024-01-24T01:49:15.749Z,4.89
2024-01-24T01:51:41.991Z,4.48
2024-01-24T01:54:08.193Z,4.38
2024-01-24T01:56:34.363Z,4.82
2024-01-24T01:59:00.522Z,4.84
2024-01-24T02:01:26.693Z,4.84
2024-01-24T02:03:52.941Z,4.70
2024-01-24T02:06:19.318Z,4.70
2024-01-24T02:08:45.650Z,5.17
2024-01-24T02:11:11.864Z,5.01
2024-01-24T02:13:38.032Z,4.69
2024-01-24T02:16:04.181Z,4.93
2024-01-24T02:18:30.353Z,4.73
2024-01-24T02:20:56.529Z,4.81
2024-01-24T02:23:22.697Z,5.10
2024-01-24T02:25:48.851Z,5.20
2024-01-24T02:28:15.033Z,5.09
2024-01-24T02:30:41.231Z,5.09
2024-01-24T02:33:07.471Z,5.25
2024-01-24T02:35:33.728Z,5.16
2024-01-24T02:37:59.900Z,4.85
2024-01-24T02:40:26.082Z,4.92
2024-01-24T02:42:52.333Z,4.65
2024-01-24T02:45:18.583Z,4.71
2024-01-24T02:47:44.789Z,4.79
2024-01-24T02:50:13.289Z,5.09
2024-01-24T02:52:40.990Z,4.71
2024-01-24T02:55:07.285Z,4.85
2024-01-24T02:57:33.577Z,4.78
2024-01-24T02:59:59.743Z,4.71
2024-01-24T03:02:26.001Z,4.25
2024-01-24T03:04:52.206Z,4.63
2024-01-24T03:07:18.558Z,4.76
2024-01-24T03:09:44.803Z,4.83
2024-01-24T03:12:11.082Z,4.69
2024-01-24T03:14:37.302Z,4.71
2024-01-24T03:17:03.466Z,4.94
2024-01-24T03:19:29.752Z,4.63
2024-01-24T03:21:56.097Z,4.48
2024-01-24T03:24:22.353Z,4.49
2024-01-24T03:26:48.500Z,4.96
2024-01-24T03:29:14.653Z,5.34
2024-01-24T03:31:40.814Z,4.94
2024-01-24T03:34:07.107Z,4.82
2024-01-24T03:36:33.383Z,4.92
2024-01-24T03:38:59.585Z,5.09
2024-01-24T03:41:25.751Z,5.11
2024-01-24T03:43:51.899Z,5.21
2024-01-24T03:46:18.053Z,4.83
2024-01-24T03:48:44.252Z,5.08
2024-01-24T03:51:10.431Z,5.12
2024-01-24T03:53:36.582Z,4.87
2024-01-24T03:56:02.757Z,5.27
2024-01-24T03:58:28.916Z,5.15
2024-01-24T04:00:55.123Z,5.52
2024-01-24T04:03:21.366Z,5.51
2024-01-24T04:05:47.649Z,5.57
2024-01-24T04:08:14.035Z,5.62
2024-01-24T04:10:40.190Z,5.42
2024-01-24T04:13:06.336Z,5.65
2024-01-24T04:15:32.501Z,5.30
2024-01-24T04:17:58.722Z,5.10
2024-01-24T04:20:24.913Z,5.49
2024-01-24T04:22:51.102Z,5.06
2024-01-24T04:25:17.249Z,5.02
2024-01-24T04:27:43.492Z,5.34
2024-01-24T04:30:09.797Z,5.04
2024-01-24T04:32:36.097Z,4.83
2024-01-24T04:35:02.378Z,4.52
2024-01-24T04:37:28.558Z,4.50
2024-01-24T04:39:54.787Z,4.99
2024-01-24T04:42:21.045Z,5.27
2024-01-24T04:44:47.255Z,4.71
2024-01-24T04:47:13.449Z,5.09
2024-01-24T04:49:44.519Z,5.42
2024-01-24T04:52:12.115Z,4.89
2024-01-24T04:54:38.416Z,5.33
2024-01-24T04:57:04.681Z,5.75
2024-01-24T04:59:32.091Z,5.56
2024-01-24T05:02:00.779Z,5.16
2024-01-24T05:04:26.951Z,4.59
2024-01-24T05:06:53.138Z,5.02
2024-01-24T05:09:19.328Z,5.10
2024-01-24T05:11:45.490Z,5.05
2024-01-24T05:14:11.668Z,4.85
2024-01-24T05:16:37.843Z,4.87
2024-01-24T05:19:04.131Z,4.59
2024-01-24T05:21:30.408Z,4.20
2024-01-24T05:23:56.579Z,4.44
2024-01-24T05:26:22.730Z,4.52
2024-01-24T05:28:48.892Z,4.64
2024-01-24T05:31:15.359Z,4.86
2024-01-24T05:33:41.542Z,4.99
2024-01-24T05:36:07.782Z,5.16
2024-01-24T05:38:33.939Z,5.13
2024-01-24T05:41:00.090Z,4.96
2024-01-24T05:43:26.241Z,5.04
2024-01-24T05:45:52.500Z,5.59
2024-01-24T05:48:18.843Z,5.37
2024-01-24T05:50:45.101Z,4.88
2024-01-24T05:53:11.253Z,5.21
2024-01-24T05:55:37.439Z,5.75
2024-01-24T05:58:03.658Z,5.74
2024-01-24T06:00:29.950Z,5.49
2024-01-24T06:02:56.177Z,5.86
2024-01-24T06:05:22.468Z,5.61
2024-01-24T06:07:48.754Z,5.63
2024-01-24T06:10:14.911Z,5.82
2024-01-24T06:12:41.116Z,5.72
2024-01-24T06:15:07.335Z,5.71
2024-01-24T06:17:35.417Z,5.37
2024-01-24T06:20:01.822Z,5.45
2024-01-24T06:22:27.984Z,5.40
2024-01-24T06:24:54.161Z,5.84
2024-01-24T06:27:20.438Z,5.26
2024-01-24T06:30:16.925Z,5.35
2024-01-24T06:32:32.803Z,5.23
2024-01-24T06:34:58.968Z,5.60
2024-01-24T06:37:25.129Z,5.33
2024-01-24T06:39:51.361Z,5.56
2024-01-24T06:42:17.685Z,5.45
2024-01-24T06:44:45.144Z,5.43
2024-01-24T06:47:12.053Z,5.33
2024-01-24T06:49:38.320Z,4.97
2024-01-24T06:52:04.564Z,5.47
2024-01-24T06:54:30.782Z,5.65
2024-01-24T06:56:56.945Z,5.53
2024-01-24T06:59:23.125Z,5.68
2024-01-24T07:01:49.292Z,5.47
2024-01-24T07:04:15.618Z,5.50
2024-01-24T07:06:41.877Z,5.57
2024-01-24T07:09:08.080Z,5.60
2024-01-24T07:11:34.247Z,5.16
2024-01-24T07:14:00.428Z,4.75
2024-01-24T07:16:26.593Z,5.11
2024-01-24T07:18:52.852Z,5.24
2024-01-24T07:21:19.163Z,5.20
2024-01-24T07:23:45.325Z,5.25
2024-01-24T07:26:11.477Z,5.68
2024-01-24T07:28:37.663Z,5.91
2024-01-24T07:31:03.941Z,5.89
2024-01-24T07:33:30.284Z,6.05
2024-01-24T07:35:56.502Z,6.15
2024-01-24T07:38:22.652Z,6.17
2024-01-24T07:40:48.814Z,5.76
2024-01-24T07:43:14.989Z,5.70
2024-01-24T07:45:41.364Z,6.17
2024-01-24T07:48:07.820Z,6.49
2024-01-24T07:50:34.011Z,6.57
2024-01-24T07:53:00.205Z,6.58
2024-01-24T07:55:32.687Z,6.36
2024-01-24T07:58:08.036Z,6.69
2024-01-24T08:00:34.535Z,6.92
2024-01-24T08:03:00.794Z,6.96
2024-01-24T08:05:27.157Z,7.42
2024-01-24T08:07:53.333Z,7.58
2024-01-24T08:10:19.520Z,7.72
2024-01-24T08:12:47.613Z,7.34
2024-01-24T08:15:13.896Z,6.75
2024-01-24T08:17:40.198Z,7.05
2024-01-24T08:20:06.462Z,7.33
2024-01-24T08:22:32.666Z,7.28
2024-01-24T08:24:58.965Z,7.89
2024-01-24T08:27:25.241Z,8.07
2024-01-24T08:29:51.466Z,8.27
2024-01-24T08:32:17.629Z,7.93
2024-01-24T08:34:43.871Z,8.32
2024-01-24T08:37:10.047Z,7.99
2024-01-24T08:39:36.312Z,7.74
2024-01-24T08:42:02.523Z,7.86
2024-01-24T08:44:28.690Z,8.20
2024-01-24T08:46:54.876Z,8.40
2024-01-24T08:49:21.220Z,8.41
2024-01-24T08:51:47.534Z,8.41
2024-01-24T08:54:14.004Z,8.47
2024-01-24T08:56:40.297Z,8.78
2024-01-24T08:59:06.564Z,8.99
2024-01-24T09:01:33.137Z,8.85
2024-01-24T09:03:59.694Z,8.82
2024-01-24T09:06:26.257Z,8.65
2024-01-24T09:08:52.522Z,8.33
2024-01-24T09:11:18.824Z,8.09
2024-01-24T09:13:45.016Z,8.52
2024-01-24T09:16:11.262Z,8.64
2024-01-24T09:18:37.761Z,8.98
2024-01-24T09:21:04.070Z,8.85
2024-01-24T09:23:30.366Z,8.96
2024-01-24T09:25:56.614Z,8.92
2024-01-24T09:28:22.873Z,9.24
2024-01-24T09:30:49.069Z,9.46
2024-01-24T09:33:15.631Z,9.79
2024-01-24T09:35:41.994Z,10.15
2024-01-24T09:38:08.293Z,9.96
2024-01-24T09:40:34.451Z,10.04
2024-01-24T09:43:00.634Z,10.28
2024-01-24T09:45:26.896Z,10.61
2024-01-24T09:47:53.102Z,10.65
2024-01-24T09:50:19.282Z,10.70
2024-01-24T09:52:47.238Z,11.00
2024-01-24T09:55:14.302Z,11.12
2024-01-24T09:57:40.541Z,10.90
2024-01-24T10:00:06.735Z,11.15
2024-01-24T10:02:32.942Z,11.36
2024-01-24T10:04:59.189Z,11.18
2024-01-24T10:07:25.476Z,11.21
2024-01-24T10:09:51.703Z,10.78
2024-01-24T10:12:18.155Z,9.90
2024-01-24T10:14:44.341Z,9.53
2024-01-24T10:17:10.547Z,10.50
2024-01-24T10:19:36.868Z,10.59
2024-01-24T10:22:03.747Z,11.06
2024-01-24T10:24:30.949Z,11.06
2024-01-24T10:26:57.147Z,11.12
2024-01-24T10:29:23.682Z,11.34
2024-01-24T10:31:49.976Z,11.56
2024-01-24T10:34:16.895Z,11.78
2024-01-24T10:36:44.318Z,11.82
2024-01-24T10:39:11.034Z,11.89
2024-01-24T10:41:37.538Z,11.97
2024-01-24T10:44:03.773Z,12.05
2024-01-24T10:46:31.450Z,12.19
2024-01-24T10:48:57.692Z,12.33
2024-01-24T10:51:24.362Z,12.50
2024-01-24T10:53:50.701Z,12.04
2024-01-24T10:56:17.511Z,12.22
2024-01-24T10:58:43.716Z,12.24
2024-01-24T11:01:10.211Z,11.06
2024-01-24T11:03:36.529Z,11.50
2024-01-24T11:06:02.840Z,11.87
2024-01-24T11:08:36.443Z,11.73
2024-01-24T11:11:09.552Z,10.95
2024-01-24T11:13:35.733Z,11.11
2024-01-24T11:16:02.025Z,11.18
2024-01-24T11:18:28.408Z,11.41
2024-01-24T11:20:54.657Z,11.96
2024-01-24T11:23:20.846Z,12.51
2024-01-24T11:25:47.047Z,12.87
2024-01-24T11:28:13.281Z,13.06
2024-01-24T11:30:39.508Z,13.42
2024-01-24T11:33:06.116Z,13.29
2024-01-24T11:35:32.778Z,13.59
2024-01-24T11:38:08.578Z,13.36
2024-01-24T11:40:42.385Z,13.31
2024-01-24T11:43:08.693Z,13.20
2024-01-24T11:45:35.381Z,12.75
2024-01-24T11:48:01.840Z,12.84
2024-01-24T11:50:28.157Z,12.86
2024-01-24T11:52:54.328Z,12.84
2024-01-24T11:55:20.544Z,12.86
2024-01-24T11:57:46.751Z,12.17
2024-01-24T12:00:12.944Z,12.29
2024-01-24T12:02:39.265Z,12.27
2024-01-24T12:05:05.570Z,12.30
2024-01-24T12:07:31.873Z,12.30
2024-01-24T12:09:58.237Z,12.04
2024-01-24T12:12:24.530Z,12.08
2024-01-24T12:14:50.685Z,12.09
2024-01-24T12:17:18.014Z,12.02
2024-01-24T12:19:46.052Z,11.54
2024-01-24T12:22:12.772Z,11.51
2024-01-24T12:24:39.136Z,11.84
2024-01-24T12:27:05.401Z,11.96
2024-01-24T12:29:31.624Z,11.54
2024-01-24T12:31:57.894Z,11.86
2024-01-24T12:34:24.374Z,12.17
2024-01-24T12:36:50.696Z,12.45
2024-01-24T12:39:17.792Z,12.49
2024-01-24T12:41:44.018Z,12.59
2024-01-24T12:44:10.943Z,12.57
2024-01-24T12:46:37.152Z,12.70
2024-01-24T12:49:03.436Z,12.78
2024-01-24T12:51:29.694Z,13.19
2024-01-24T12:53:56.264Z,13.55
2024-01-24T12:56:22.432Z,12.91
2024-01-24T12:58:48.606Z,12.76
2024-01-24T13:01:15.031Z,12.60
2024-01-24T13:03:41.413Z,12.86
2024-01-24T13:06:07.911Z,13.23
2024-01-24T13:08:34.344Z,13.44
2024-01-24T13:11:00.683Z,13.34
2024-01-24T13:13:26.882Z,13.42
2024-01-24T13:15:53.107Z,12.62
2024-01-24T13:18:19.465Z,12.83
2024-01-24T13:20:45.714Z,12.96
2024-01-24T13:23:11.896Z,12.44
2024-01-24T13:25:38.120Z,12.45
2024-01-24T13:28:04.638Z,12.51
2024-01-24T13:30:30.952Z,10.65
2024-01-24T13:32:57.259Z,11.34
2024-01-24T13:35:23.648Z,12.24
2024-01-24T13:37:49.908Z,12.42
2024-01-24T13:40:16.908Z,12.66
2024-01-24T13:42:43.428Z,12.66
2024-01-24T13:45:09.952Z,12.33
2024-01-24T13:47:36.204Z,12.67
2024-01-24T13:50:02.728Z,12.89
2024-01-24T13:52:29.343Z,12.87
2024-01-24T13:54:56.167Z,12.63
2024-01-24T13:57:22.604Z,12.72
2024-01-24T13:59:48.982Z,12.82
2024-01-24T14:02:16.210Z,12.66
2024-01-24T14:04:42.680Z,12.21
2024-01-24T14:07:09.041Z,12.21
2024-01-24T14:09:37.308Z,12.03
2024-01-24T14:12:03.839Z,12.11
2024-01-24T14:14:32.370Z,11.91
2024-01-24T14:16:59.211Z,11.80
2024-01-24T14:19:25.550Z,11.94
2024-01-24T14:21:51.847Z,11.74
2024-01-24T14:24:18.021Z,11.55
2024-01-24T14:26:44.208Z,11.63
2024-01-24T14:29:10.364Z,11.82
2024-01-24T14:31:37.196Z,11.93
2024-01-24T14:34:04.193Z,11.82
2024-01-24T14:36:30.514Z,11.67
2024-01-24T14:38:56.687Z,11.72
2024-01-24T14:41:22.852Z,11.52
2024-01-24T14:43:49.037Z,11.46
2024-01-24T14:46:15.206Z,11.41
2024-01-24T14:48:41.452Z,10.93
2024-01-24T14:51:07.659Z,10.80
2024-01-24T14:53:33.806Z,10.80
2024-01-24T14:56:00.367Z,10.93
2024-01-24T14:58:26.532Z,10.96
2024-01-24T15:00:52.775Z,10.98
2024-01-24T15:03:19.039Z,11.03
2024-01-24T15:05:45.557Z,10.77
2024-01-24T15:08:11.737Z,10.84
2024-01-24T15:10:37.900Z,10.79
2024-01-24T15:13:04.172Z,10.48
2024-01-24T15:15:30.490Z,10.64
2024-01-24T15:17:56.823Z,10.40
2024-01-24T15:20:23.064Z,10.34
2024-01-24T15:22:49.512Z,9.94
2024-01-24T15:25:17.420Z,9.93
2024-01-24T15:27:43.801Z,10.15
2024-01-24T15:30:10.033Z,9.69
2024-01-24T15:32:36.227Z,9.51
2024-01-24T15:35:02.506Z,9.62
2024-01-24T15:37:28.814Z,9.33
2024-01-24T15:39:55.123Z,9.65
2024-01-24T15:42:21.372Z,9.42
2024-01-24T15:44:47.599Z,9.13
2024-01-24T15:47:13.883Z,8.95
2024-01-24T15:49:40.103Z,9.03
2024-01-24T15:52:06.418Z,8.77
2024-01-24T15:54:32.730Z,8.55
2024-01-24T15:56:58.966Z,8.39
2024-01-24T15:59:25.244Z,8.03
2024-01-24T16:01:51.549Z,7.84
2024-01-24T16:04:17.990Z,7.94
2024-01-24T16:06:44.264Z,7.98
2024-01-24T16:09:10.660Z,8.06
2024-01-24T16:11:36.871Z,8.20
2024-01-24T16:14:03.037Z,7.63
2024-01-24T16:16:29.250Z,7.41
2024-01-24T16:18:55.492Z,7.51
2024-01-24T16:21:21.733Z,7.26
2024-01-24T16:23:47.898Z,7.16
2024-01-24T16:26:14.062Z,7.53
2024-01-24T16:28:40.232Z,7.01
2024-01-24T16:31:06.454Z,6.77
2024-01-24T16:33:32.839Z,6.66
2024-01-24T16:35:59.110Z,6.70
2024-01-24T16:38:25.297Z,5.98
2024-01-24T16:40:51.545Z,5.84
2024-01-24T16:43:17.726Z,6.06
2024-01-24T16:45:43.950Z,6.08
2024-01-24T16:48:10.269Z,5.60
2024-01-24T16:50:36.480Z,5.05
2024-01-24T16:53:02.669Z,5.08
2024-01-24T16:55:28.844Z,5.76
2024-01-24T16:57:55.056Z,5.75
2024-01-24T17:00:21.332Z,5.60
2024-01-24T17:02:51.714Z,5.95
2024-01-24T17:05:24.077Z,6.15
2024-01-24T17:07:50.267Z,6.21
2024-01-24T17:10:17.097Z,6.25
2024-01-24T17:12:43.401Z,6.44
2024-01-24T17:15:09.621Z,5.77
2024-01-24T17:17:35.838Z,5.61
2024-01-24T17:20:02.114Z,5.65
2024-01-24T17:22:36.083Z,5.20
2024-01-24T17:25:02.357Z,5.24
2024-01-24T17:27:28.651Z,5.15
2024-01-24T17:29:54.833Z,5.34
2024-01-24T17:32:21.015Z,5.42
2024-01-24T17:34:47.214Z,5.49
2024-01-24T17:37:13.527Z,5.81
2024-01-24T17:39:40.000Z,5.55
2024-01-24T17:42:06.229Z,5.54
2024-01-24T17:44:32.538Z,5.83
2024-01-24T17:46:58.773Z,5.93
2024-01-24T17:49:25.049Z,5.71
2024-01-24T17:51:51.282Z,5.81
2024-01-24T17:54:17.529Z,5.73
2024-01-24T17:56:43.728Z,5.51
2024-01-24T17:59:09.911Z,5.28
2024-01-24T18:01:36.400Z,5.27
2024-01-24T18:04:02.700Z,5.32
2024-01-24T18:06:28.921Z,5.45
2024-01-24T18:08:55.127Z,5.47
2024-01-24T18:11:21.306Z,5.58
2024-01-24T18:13:47.471Z,5.49
2024-01-24T18:16:13.647Z,5.26
2024-01-24T18:18:39.893Z,5.12
2024-01-24T18:21:07.942Z,5.02
2024-01-24T18:23:35.390Z,5.45
2024-01-24T18:26:01.552Z,5.72
2024-01-24T18:28:27.724Z,5.38
2024-01-24T18:30:53.959Z,5.22
2024-01-24T18:33:20.314Z,5.58
2024-01-24T18:35:46.605Z,5.57
2024-01-24T18:38:12.756Z,5.67
2024-01-24T18:40:38.932Z,5.76
2024-01-24T18:43:05.220Z,5.89
2024-01-24T18:45:31.656Z,5.38
2024-01-24T18:47:57.968Z,5.08
2024-01-24T18:50:24.383Z,5.31
2024-01-24T18:52:50.612Z,5.61
2024-01-24T18:55:16.966Z,5.56
2024-01-24T18:57:43.352Z,5.62
2024-01-24T19:00:09.735Z,5.63
2024-01-24T19:02:36.028Z,5.58
2024-01-24T19:05:02.488Z,5.48
2024-01-24T19:07:29.043Z,5.24
2024-01-24T19:09:55.267Z,5.29
2024-01-24T19:12:21.490Z,5.79
2024-01-24T19:14:47.657Z,5.41
2024-01-24T19:17:14.142Z,5.57
2024-01-24T19:19:40.514Z,5.62
2024-01-24T19:22:06.870Z,5.43
2024-01-24T19:24:33.098Z,5.33
2024-01-24T19:26:59.540Z,5.53
2024-01-24T19:29:25.910Z,5.45
2024-01-24T19:31:52.151Z,5.45
2024-01-24T19:34:18.759Z,5.64
2024-01-24T19:36:45.170Z,5.53
2024-01-24T19:39:11.410Z,5.52
2024-01-24T19:41:37.586Z,5.61
2024-01-24T19:44:03.841Z,5.53
2024-01-24T19:46:29.997Z,5.37
2024-01-24T19:48:56.257Z,5.47
2024-01-24T19:51:22.521Z,5.35
2024-01-24T19:53:48.693Z,5.44
2024-01-24T19:56:14.862Z,5.61
2024-01-24T19:58:41.030Z,5.75
2024-01-24T20:01:07.313Z,5.82
2024-01-24T20:03:33.684Z,5.44
2024-01-24T20:05:59.933Z,5.46
2024-01-24T20:08:26.097Z,5.53
2024-01-24T20:10:52.274Z,5.80
2024-01-24T20:13:18.421Z,6.09
2024-01-24T20:15:44.745Z,5.95
2024-01-24T20:18:10.961Z,6.00
2024-01-24T20:20:37.158Z,6.11
2024-01-24T20:23:03.362Z,6.25
2024-01-24T20:25:29.540Z,6.40
2024-01-24T20:27:55.985Z,6.19
2024-01-24T20:30:22.201Z,5.91
2024-01-24T20:32:57.219Z,5.72
2024-01-24T20:35:27.856Z,5.85
2024-01-24T20:37:54.044Z,5.89
2024-01-24T20:40:20.206Z,5.98
2024-01-24T20:42:46.427Z,5.87
2024-01-24T20:45:12.600Z,6.29
2024-01-24T20:47:38.792Z,6.41
2024-01-24T20:50:05.134Z,6.31
2024-01-24T20:52:31.364Z,6.43
2024-01-24T20:54:57.559Z,6.35
2024-01-24T20:57:23.762Z,5.11
2024-01-24T20:59:50.011Z,5.12
2024-01-24T21:02:16.549Z,5.83
2024-01-24T21:04:43.088Z,5.83
2024-01-24T21:07:09.427Z,5.91
2024-01-24T21:09:35.620Z,5.68
2024-01-24T21:12:01.888Z,5.76
2024-01-24T21:14:28.063Z,5.85
2024-01-24T21:16:54.226Z,6.06
2024-01-24T21:19:20.418Z,6.16
2024-01-24T21:21:46.896Z,5.88
2024-01-24T21:24:13.214Z,5.73
2024-01-24T21:26:39.392Z,5.79
2024-01-24T21:29:05.546Z,5.82
2024-01-24T21:31:31.720Z,5.85
2024-01-24T21:33:57.937Z,5.56
2024-01-24T21:36:24.180Z,5.61
2024-01-24T21:38:50.997Z,5.73
2024-01-24T21:41:17.365Z,5.70
2024-01-24T21:43:43.530Z,5.91
2024-01-24T21:46:09.727Z,5.75
2024-01-24T21:48:36.048Z,5.54
2024-01-24T21:51:02.246Z,5.76
2024-01-24T21:53:28.435Z,5.74
2024-01-24T21:55:54.612Z,5.68
2024-01-24T21:58:20.782Z,5.57
2024-01-24T22:00:47.104Z,5.44
2024-01-24T22:03:13.316Z,5.57
2024-01-24T22:05:39.493Z,5.83
2024-01-24T22:08:05.658Z,5.95
2024-01-24T22:10:32.379Z,6.00
2024-01-24T22:12:58.869Z,5.96
2024-01-24T22:15:25.097Z,6.02
2024-01-24T22:17:51.313Z,5.56
2024-01-24T22:20:17.533Z,6.01
2024-01-24T22:22:43.950Z,5.90
2024-01-24T22:25:10.269Z,5.70
2024-01-24T22:27:36.584Z,5.73
2024-01-24T22:30:02.763Z,6.03
2024-01-24T22:32:28.998Z,6.10
2024-01-24T22:34:55.249Z,6.04
2024-01-24T22:37:21.540Z,5.84
2024-01-24T22:39:47.860Z,5.87
2024-01-24T22:42:14.093Z,5.53
2024-01-24T22:44:40.259Z,5.27
2024-01-24T22:47:06.437Z,5.40
2024-01-24T22:49:32.729Z,5.43
2024-01-24T22:51:59.052Z,4.92
2024-01-24T22:54:25.320Z,4.59
2024-01-24T22:56:51.465Z,4.65
2024-01-24T22:59:17.640Z,4.89
2024-01-24T23:01:43.954Z,4.92
2024-01-24T23:04:10.282Z,4.75
2024-01-24T23:06:36.706Z,4.65
2024-01-24T23:09:02.914Z,4.81
2024-01-24T23:11:29.075Z,4.76
2024-01-24T23:13:55.262Z,4.69
2024-01-24T23:16:21.670Z,4.56
2024-01-24T23:18:47.993Z,4.69
2024-01-24T23:21:14.161Z,4.60
2024-01-24T23:23:40.325Z,4.56
2024-01-24T23:26:06.561Z,4.65
2024-01-24T23:28:32.841Z,4.67
2024-01-24T23:30:59.096Z,4.70
2024-01-24T23:33:25.416Z,4.84
2024-01-24T23:35:51.602Z,5.00
2024-01-24T23:38:17.791Z,4.96
2024-01-24T23:40:43.989Z,4.98
2024-01-24T23:43:10.191Z,4.85
2024-01-24T23:45:36.416Z,4.84
2024-01-24T23:48:02.851Z,4.93
2024-01-24T23:50:29.437Z,5.14
2024-01-24T23:52:55.726Z,5.10
2024-01-24T23:55:22.035Z,5.00
2024-01-24T23:57:48.348Z,5.14
